createdAt,value
2019-03-10T00:00:50.222Z,6.10
2019-03-10T00:03:23.875Z,6.10
2019-03-10T00:05:56.006Z,6.10
2019-03-10T00:08:27.974Z,6.20
2019-03-10T00:11:00.013Z,6.20
2019-03-10T00:13:31.860Z,6.10
2019-03-10T00:16:03.819Z,6.10
2019-03-10T00:18:35.712Z,6.20
2019-03-10T00:21:07.771Z,6.10
2019-03-10T00:23:39.722Z,6.10
2019-03-10T00:26:11.636Z,6.10
2019-03-10T00:28:43.379Z,6.00
2019-03-10T00:31:15.320Z,6.10
2019-03-10T00:33:47.272Z,6.00
2019-03-10T00:36:19.174Z,6.00
2019-03-10T00:39:08.134Z,6.00
2019-03-10T00:42:16.457Z,6.00
2019-03-10T00:45:36.601Z,6.00
2019-03-10T00:48:50.274Z,6.00
2019-03-10T00:51:57.039Z,6.00
2019-03-10T00:54:28.877Z,6.10
2019-03-10T00:57:00.756Z,6.00
2019-03-10T00:59:32.934Z,6.00
2019-03-10T01:02:05.086Z,6.00
2019-03-10T01:04:36.964Z,6.00
2019-03-10T01:07:09.241Z,6.00
2019-03-10T01:09:41.356Z,6.00
2019-03-10T01:12:13.193Z,6.00
2019-03-10T01:14:45.105Z,6.00
2019-03-10T01:17:17.603Z,6.00
2019-03-10T01:19:50.233Z,6.00
2019-03-10T01:22:22.890Z,6.00
2019-03-10T01:24:54.672Z,6.00
2019-03-10T01:27:26.675Z,6.00
2019-03-10T01:29:58.571Z,5.80
2019-03-10T01:33:16.478Z,5.70
2019-03-10T01:35:48.381Z,5.60
2019-03-10T01:38:20.549Z,5.50
2019-03-10T01:40:52.281Z,5.50
2019-03-10T01:43:24.258Z,5.40
2019-03-10T01:45:56.401Z,5.30
2019-03-10T01:48:29.428Z,5.20
2019-03-10T01:51:01.270Z,5.20
2019-03-10T01:53:33.077Z,5.10
2019-03-10T01:56:05.051Z,5.00
2019-03-10T01:58:36.521Z,5.00
2019-03-10T02:01:08.027Z,5.00
2019-03-10T02:03:39.492Z,5.00
2019-03-10T02:06:10.778Z,4.90
2019-03-10T02:08:42.162Z,5.00
2019-03-10T02:11:13.677Z,4.90
2019-03-10T02:13:45.098Z,4.90
2019-03-10T02:16:16.463Z,4.90
2019-03-10T02:18:47.893Z,4.90
2019-03-10T02:21:19.270Z,5.00
2019-03-10T02:23:50.645Z,5.00
2019-03-10T02:26:22.074Z,5.00
2019-03-10T02:28:53.574Z,5.00
2019-03-10T02:31:24.894Z,5.00
2019-03-10T02:33:56.339Z,5.10
2019-03-10T02:36:27.838Z,5.10
2019-03-10T02:38:59.212Z,5.10
2019-03-10T02:41:30.553Z,5.20
2019-03-10T02:44:02.084Z,5.30
2019-03-10T02:46:33.487Z,5.30
2019-03-10T02:49:04.961Z,5.30
2019-03-10T02:51:36.322Z,5.40
2019-03-10T02:54:07.761Z,5.40
2019-03-10T02:56:39.134Z,5.30
2019-03-10T02:59:10.421Z,5.30
2019-03-10T03:01:41.860Z,5.30
2019-03-10T03:04:13.343Z,5.20
2019-03-10T03:06:44.869Z,5.20
2019-03-10T03:09:16.392Z,5.10
2019-03-10T03:11:47.845Z,5.10
2019-03-10T03:14:19.224Z,5.00
2019-03-10T03:16:52.885Z,5.00
2019-03-10T03:19:23.523Z,4.90
2019-03-10T03:21:55.118Z,4.90
2019-03-10T03:24:26.484Z,4.90
2019-03-10T03:26:58.040Z,4.90
2019-03-10T03:29:30.502Z,4.80
2019-03-10T03:32:01.870Z,4.80
2019-03-10T03:34:33.238Z,4.80
2019-03-10T03:37:05.015Z,4.80
2019-03-10T03:39:39.782Z,4.80
2019-03-10T03:42:14.189Z,4.70
2019-03-10T03:44:45.668Z,4.70
2019-03-10T03:47:17.075Z,4.60
2019-03-10T03:49:48.430Z,4.60
2019-03-10T03:52:19.874Z,4.50
2019-03-10T03:54:51.274Z,4.50
2019-03-10T03:57:22.639Z,4.50
2019-03-10T03:59:54.017Z,4.50
2019-03-10T04:02:50.462Z,4.50
2019-03-10T04:05:21.899Z,4.50
2019-03-10T04:07:53.286Z,4.50
2019-03-10T04:10:24.819Z,4.50
2019-03-10T04:12:56.395Z,4.50
2019-03-10T04:15:27.791Z,4.50
2019-03-10T04:18:00.471Z,4.50
2019-03-10T04:20:31.835Z,4.50
2019-03-10T04:23:03.390Z,4.50
2019-03-10T04:25:34.803Z,4.50
2019-03-10T04:28:06.248Z,4.50
2019-03-10T04:30:37.862Z,4.50
2019-03-10T04:33:09.270Z,4.50
2019-03-10T04:35:40.596Z,4.40
2019-03-10T04:38:11.996Z,4.50
2019-03-10T04:40:43.474Z,4.50
2019-03-10T04:43:14.920Z,4.40
2019-03-10T04:45:46.289Z,4.50
2019-03-10T04:48:17.722Z,4.50
2019-03-10T04:50:49.107Z,4.50
2019-03-10T04:53:20.440Z,4.50
2019-03-10T04:55:59.613Z,4.50
2019-03-10T04:58:31.542Z,4.40
2019-03-10T05:01:03.374Z,4.50
2019-03-10T05:03:34.756Z,4.50
2019-03-10T05:06:06.149Z,4.40
2019-03-10T05:08:37.568Z,4.40
2019-03-10T05:11:09.029Z,4.30
2019-03-10T05:13:40.424Z,4.40
2019-03-10T05:16:11.928Z,4.30
2019-03-10T05:18:43.278Z,4.30
2019-03-10T05:21:14.799Z,4.30
2019-03-10T05:23:46.633Z,4.30
2019-03-10T05:26:18.948Z,4.30
2019-03-10T05:28:50.331Z,4.30
2019-03-10T05:31:22.017Z,4.20
2019-03-10T05:33:53.385Z,4.20
2019-03-10T05:36:25.076Z,4.30
2019-03-10T05:38:56.593Z,4.30
2019-03-10T05:41:28.139Z,4.30
2019-03-10T05:43:59.508Z,4.40
2019-03-10T05:46:31.103Z,4.40
2019-03-10T05:49:02.623Z,4.50
2019-03-10T05:51:34.396Z,4.60
2019-03-10T05:54:06.069Z,4.70
2019-03-10T05:56:37.657Z,4.70
2019-03-10T05:59:09.081Z,4.70
2019-03-10T06:01:40.640Z,4.80
2019-03-10T06:04:12.238Z,4.80
2019-03-10T06:06:43.770Z,5.20
2019-03-10T06:09:15.244Z,6.60
2019-03-10T06:11:46.648Z,7.80
2019-03-10T06:14:18.309Z,7.50
2019-03-10T06:16:49.832Z,7.10
2019-03-10T06:19:21.313Z,6.80
2019-03-10T06:21:52.815Z,7.20
2019-03-10T06:24:24.280Z,6.90
2019-03-10T06:26:55.840Z,6.40
2019-03-10T06:29:27.522Z,6.10
2019-03-10T06:31:59.023Z,5.80
2019-03-10T06:34:30.570Z,5.60
2019-03-10T06:37:01.963Z,5.50
2019-03-10T06:39:33.555Z,5.40
2019-03-10T06:42:05.146Z,5.30
2019-03-10T06:44:36.647Z,5.20
2019-03-10T06:47:08.083Z,5.20
2019-03-10T06:49:39.712Z,5.20
2019-03-10T06:52:11.192Z,5.30
2019-03-10T06:54:43.815Z,5.50
2019-03-10T06:57:15.304Z,5.80
2019-03-10T06:59:46.878Z,5.90
2019-03-10T07:02:18.689Z,6.40
2019-03-10T07:04:50.188Z,6.60
2019-03-10T07:07:21.780Z,6.60
2019-03-10T07:09:53.609Z,6.30
2019-03-10T07:12:25.138Z,6.40
2019-03-10T07:14:56.627Z,6.60
2019-03-10T07:17:28.350Z,7.10
2019-03-10T07:19:59.833Z,7.20
2019-03-10T07:22:31.279Z,7.00
2019-03-10T07:25:02.648Z,6.80
2019-03-10T07:27:43.546Z,6.60
2019-03-10T07:30:34.208Z,6.50
2019-03-10T07:33:23.558Z,6.40
2019-03-10T07:36:05.018Z,6.70
2019-03-10T07:39:04.318Z,6.80
2019-03-10T07:41:54.137Z,7.00
2019-03-10T07:44:44.472Z,7.20
2019-03-10T07:47:33.338Z,7.60
2019-03-10T07:50:14.890Z,7.60
2019-03-10T07:53:03.928Z,7.40
2019-03-10T07:55:41.907Z,7.80
2019-03-10T07:58:32.168Z,8.40
2019-03-10T08:01:14.707Z,8.10
2019-03-10T08:04:11.700Z,7.60
2019-03-10T08:07:02.207Z,7.40
2019-03-10T08:09:55.648Z,7.30
2019-03-10T08:13:01.272Z,7.40
2019-03-10T08:15:43.816Z,7.50
2019-03-10T08:18:36.858Z,7.30
2019-03-10T08:21:30.232Z,7.70
2019-03-10T08:24:17.314Z,8.20
2019-03-10T08:27:19.770Z,8.80
2019-03-10T08:30:04.727Z,9.10
2019-03-10T08:33:13.398Z,9.50
2019-03-10T08:36:13.677Z,9.80
2019-03-10T08:39:10.639Z,9.80
2019-03-10T08:42:01.759Z,9.70
2019-03-10T08:44:39.597Z,10.00
2019-03-10T08:47:48.397Z,10.20
2019-03-10T08:50:56.957Z,10.00
2019-03-10T08:53:47.226Z,9.70
2019-03-10T08:56:36.737Z,9.00
2019-03-10T08:59:32.775Z,8.80
2019-03-10T09:02:29.189Z,8.50
2019-03-10T09:05:16.427Z,8.60
2019-03-10T09:08:06.698Z,8.20
2019-03-10T09:10:57.588Z,8.20
2019-03-10T09:14:03.008Z,8.20
2019-03-10T09:17:10.059Z,7.90
2019-03-10T09:20:06.599Z,7.50
2019-03-10T09:22:59.127Z,7.50
2019-03-10T09:25:41.377Z,7.50
2019-03-10T09:28:31.734Z,7.50
2019-03-10T09:31:17.967Z,7.30
2019-03-10T09:34:14.308Z,7.40
2019-03-10T09:37:04.208Z,7.70
2019-03-10T09:39:44.206Z,8.20
2019-03-10T09:42:53.678Z,8.40
2019-03-10T09:45:41.300Z,8.50
2019-03-10T09:48:39.398Z,8.60
2019-03-10T09:51:18.488Z,8.40
2019-03-10T09:54:05.649Z,8.30
2019-03-10T09:57:14.118Z,8.20
2019-03-10T09:59:52.578Z,8.00
2019-03-10T10:02:48.712Z,7.80
2019-03-10T10:05:57.748Z,7.80
2019-03-10T10:08:52.218Z,7.70
2019-03-10T10:11:42.567Z,7.60
2019-03-10T10:14:31.728Z,7.40
2019-03-10T10:17:25.248Z,7.40
2019-03-10T10:20:18.939Z,7.50
2019-03-10T10:23:15.448Z,7.70
2019-03-10T10:26:13.133Z,7.70
2019-03-10T10:29:18.618Z,7.70
2019-03-10T10:32:08.547Z,7.70
2019-03-10T10:34:56.241Z,7.60
2019-03-10T10:37:49.756Z,7.60
2019-03-10T10:40:40.881Z,7.60
2019-03-10T10:43:34.784Z,7.50
2019-03-10T10:46:15.478Z,7.50
2019-03-10T10:48:56.439Z,7.50
2019-03-10T10:51:53.189Z,7.60
2019-03-10T10:54:41.003Z,7.50
2019-03-10T10:57:31.288Z,7.50
2019-03-10T11:00:20.604Z,7.50
2019-03-10T11:03:12.171Z,7.50
2019-03-10T11:06:04.768Z,7.60
2019-03-10T11:08:54.026Z,7.70
2019-03-10T11:11:53.248Z,7.70
2019-03-10T11:14:52.618Z,7.70
2019-03-10T11:17:48.888Z,7.80
2019-03-10T11:20:40.899Z,8.10
2019-03-10T11:23:49.568Z,8.00
2019-03-10T11:26:39.977Z,8.00
2019-03-10T11:29:18.861Z,8.10
2019-03-10T11:32:08.348Z,8.00
2019-03-10T11:35:10.908Z,8.10
2019-03-10T11:37:59.728Z,8.00
2019-03-10T11:40:48.757Z,7.90
2019-03-10T11:43:54.186Z,8.00
2019-03-10T11:46:53.396Z,8.00
2019-03-10T11:49:44.137Z,8.00
2019-03-10T11:52:24.858Z,8.00
2019-03-10T11:55:21.015Z,8.00
2019-03-10T11:58:17.772Z,8.00
2019-03-10T12:01:14.300Z,8.10
2019-03-10T12:04:07.379Z,8.10
2019-03-10T12:07:00.607Z,8.20
2019-03-10T12:09:32.238Z,8.30
2019-03-10T12:12:03.941Z,8.30
2019-03-10T12:14:35.647Z,8.30
2019-03-10T12:17:07.226Z,8.40
2019-03-10T12:19:38.628Z,8.40
2019-03-10T12:22:09.958Z,8.40
2019-03-10T12:24:41.577Z,8.40
2019-03-10T12:27:13.048Z,8.50
2019-03-10T12:29:44.481Z,8.50
2019-03-10T12:32:15.888Z,8.60
2019-03-10T12:34:47.348Z,8.60
2019-03-10T12:37:18.868Z,8.70
2019-03-10T12:39:50.343Z,8.70
2019-03-10T12:42:21.890Z,8.70
2019-03-10T12:44:53.321Z,8.70
2019-03-10T12:47:24.768Z,8.80
2019-03-10T12:49:56.442Z,8.80
2019-03-10T12:52:27.898Z,8.80
2019-03-10T12:54:59.318Z,8.80
2019-03-10T12:57:30.841Z,8.70
2019-03-10T13:00:02.268Z,8.70
2019-03-10T13:02:34.888Z,8.80
2019-03-10T13:05:07.438Z,8.90
2019-03-10T13:07:39.038Z,9.00
2019-03-10T13:10:12.665Z,9.00
2019-03-10T13:12:44.548Z,9.10
2019-03-10T13:15:16.309Z,9.20
2019-03-10T13:17:47.873Z,9.30
2019-03-10T13:20:28.194Z,9.40
2019-03-10T13:22:53.896Z,9.50
2019-03-10T13:25:25.246Z,9.40
2019-03-10T13:27:56.773Z,9.50
2019-03-10T13:30:28.304Z,9.50
2019-03-10T13:32:59.727Z,9.50
2019-03-10T13:35:31.178Z,9.60
2019-03-10T13:38:02.528Z,9.50
2019-03-10T13:40:33.929Z,9.50
2019-03-10T13:43:05.315Z,9.60
2019-03-10T13:45:36.669Z,9.60
2019-03-10T13:48:08.128Z,9.70
2019-03-10T13:50:39.577Z,9.70
2019-03-10T13:53:11.036Z,9.70
2019-03-10T13:55:42.527Z,9.60
2019-03-10T13:58:14.042Z,9.50
2019-03-10T14:00:45.510Z,9.40
2019-03-10T14:03:17.199Z,9.40
2019-03-10T14:05:48.618Z,9.40
2019-03-10T14:08:19.986Z,9.50
2019-03-10T14:10:51.420Z,9.40
2019-03-10T14:13:22.790Z,9.30
2019-03-10T14:15:54.178Z,9.30
2019-03-10T14:18:25.627Z,9.20
2019-03-10T14:20:57.017Z,9.20
2019-03-10T14:23:28.346Z,9.10
2019-03-10T14:25:59.941Z,9.10
2019-03-10T14:28:31.401Z,9.10
2019-03-10T14:31:02.994Z,9.10
2019-03-10T14:33:34.461Z,9.00
2019-03-10T14:36:06.109Z,9.00
2019-03-10T14:38:37.559Z,9.00
2019-03-10T14:41:09.148Z,9.10
2019-03-10T14:43:40.715Z,9.10
2019-03-10T14:46:12.340Z,9.10
2019-03-10T14:48:43.865Z,9.10
2019-03-10T14:51:16.983Z,9.10
2019-03-10T14:53:48.395Z,9.10
2019-03-10T14:56:19.782Z,9.10
2019-03-10T14:58:51.327Z,9.10
2019-03-10T15:01:22.742Z,9.10
2019-03-10T15:03:54.078Z,9.10
2019-03-10T15:06:25.486Z,9.10
2019-03-10T15:08:56.895Z,9.10
2019-03-10T15:11:28.310Z,9.00
2019-03-10T15:13:59.675Z,9.00
2019-03-10T15:16:31.133Z,9.00
2019-03-10T15:19:02.467Z,9.00
2019-03-10T15:21:35.097Z,9.00
2019-03-10T15:24:06.799Z,9.00
2019-03-10T15:26:45.795Z,8.90
2019-03-10T15:29:11.406Z,9.00
2019-03-10T15:31:42.855Z,9.00
2019-03-10T15:34:14.424Z,8.90
2019-03-10T15:36:46.044Z,8.90
2019-03-10T15:39:17.715Z,8.80
2019-03-10T15:41:49.235Z,8.80
2019-03-10T15:44:20.775Z,8.80
2019-03-10T15:46:52.382Z,8.70
2019-03-10T15:49:23.935Z,8.80
2019-03-10T15:51:55.360Z,8.70
2019-03-10T15:54:26.833Z,8.70
2019-03-10T15:56:58.384Z,8.60
2019-03-10T15:59:29.779Z,8.60
2019-03-10T16:02:01.403Z,8.60
2019-03-10T16:04:32.801Z,8.50
2019-03-10T16:07:04.296Z,8.50
2019-03-10T16:09:35.747Z,8.50
2019-03-10T16:12:07.478Z,8.50
2019-03-10T16:14:39.013Z,8.50
2019-03-10T16:17:10.667Z,8.50
2019-03-10T16:19:42.031Z,8.40
2019-03-10T16:22:13.529Z,8.50
2019-03-10T16:24:44.950Z,8.40
2019-03-10T16:27:16.358Z,8.40
2019-03-10T16:29:47.839Z,8.40
2019-03-10T16:32:19.277Z,8.40
2019-03-10T16:34:50.824Z,8.40
2019-03-10T16:37:22.371Z,8.30
2019-03-10T16:39:53.830Z,8.30
2019-03-10T16:42:25.590Z,8.30
2019-03-10T16:44:57.157Z,8.20
2019-03-10T16:47:29.066Z,8.20
2019-03-10T16:50:00.588Z,8.10
2019-03-10T16:52:32.110Z,8.10
2019-03-10T16:55:03.448Z,8.10
2019-03-10T16:57:34.935Z,8.00
2019-03-10T17:00:08.912Z,7.90
2019-03-10T17:02:42.876Z,7.90
2019-03-10T17:05:15.586Z,7.80
2019-03-10T17:07:46.673Z,7.70
2019-03-10T17:10:18.138Z,7.60
2019-03-10T17:12:51.031Z,7.60
2019-03-10T17:15:22.562Z,7.60
2019-03-10T17:17:54.135Z,7.60
2019-03-10T17:20:25.626Z,7.60
2019-03-10T17:22:57.080Z,7.60
2019-03-10T17:25:28.565Z,7.60
2019-03-10T17:28:00.263Z,7.50
2019-03-10T17:30:31.892Z,7.40
2019-03-10T17:33:03.316Z,7.30
2019-03-10T17:35:35.895Z,7.20
2019-03-10T17:38:07.504Z,7.00
2019-03-10T17:40:39.069Z,7.00
2019-03-10T17:43:10.621Z,6.90
2019-03-10T17:45:42.223Z,6.80
2019-03-10T17:48:13.754Z,6.70
2019-03-10T17:50:45.258Z,6.60
2019-03-10T17:53:16.845Z,6.50
2019-03-10T17:55:48.378Z,6.50
2019-03-10T17:58:19.792Z,6.40
2019-03-10T18:00:51.213Z,6.40
2019-03-10T18:03:22.675Z,6.30
2019-03-10T18:05:54.051Z,6.30
2019-03-10T18:08:25.953Z,6.30
2019-03-10T18:10:57.355Z,6.20
2019-03-10T18:13:28.852Z,6.20
2019-03-10T18:16:00.210Z,6.20
2019-03-10T18:18:31.837Z,6.10
2019-03-10T18:21:03.319Z,6.10
2019-03-10T18:23:34.768Z,6.10
2019-03-10T18:26:06.413Z,6.10
2019-03-10T18:28:37.931Z,6.10
2019-03-10T18:31:09.511Z,6.10
2019-03-10T18:33:40.993Z,6.10
2019-03-10T18:36:12.983Z,6.00
2019-03-10T18:38:44.525Z,6.00
2019-03-10T18:41:16.005Z,5.90
2019-03-10T18:43:47.569Z,5.90
2019-03-10T18:46:19.094Z,5.80
2019-03-10T18:48:50.626Z,5.80
2019-03-10T18:51:22.199Z,5.70
2019-03-10T18:53:53.680Z,5.70
2019-03-10T18:56:25.324Z,5.70
2019-03-10T18:58:57.024Z,5.60
2019-03-10T19:01:28.632Z,5.60
2019-03-10T19:04:00.083Z,5.50
2019-03-10T19:06:31.533Z,5.60
2019-03-10T19:09:03.495Z,5.60
2019-03-10T19:11:36.498Z,5.60
2019-03-10T19:14:07.993Z,5.60
2019-03-10T19:16:39.420Z,5.60
2019-03-10T19:19:10.912Z,5.60
2019-03-10T19:21:42.419Z,5.50
2019-03-10T19:24:13.930Z,5.50
2019-03-10T19:26:45.354Z,5.50
2019-03-10T19:29:16.940Z,5.50
2019-03-10T19:31:48.525Z,5.50
2019-03-10T19:34:20.217Z,5.40
2019-03-10T19:36:56.999Z,5.40
2019-03-10T19:39:25.067Z,5.40
2019-03-10T19:41:56.554Z,5.40
2019-03-10T19:44:28.380Z,5.40
2019-03-10T19:47:00.101Z,5.40
2019-03-10T19:49:31.849Z,5.40
2019-03-10T19:52:03.744Z,5.40
2019-03-10T19:54:35.624Z,5.40
2019-03-10T19:57:07.176Z,5.40
2019-03-10T19:59:38.768Z,5.40
2019-03-10T20:02:10.317Z,5.40
2019-03-10T20:04:41.910Z,5.50
2019-03-10T20:07:13.487Z,5.40
2019-03-10T20:09:45.001Z,5.40
2019-03-10T20:12:16.716Z,5.40
2019-03-10T20:14:48.373Z,5.30
2019-03-10T20:17:21.146Z,5.30
2019-03-10T20:19:52.746Z,5.30
2019-03-10T20:22:24.167Z,5.20
2019-03-10T20:24:55.757Z,5.30
2019-03-10T20:27:27.435Z,5.30
2019-03-10T20:29:59.564Z,5.30
2019-03-10T20:32:33.630Z,5.20
2019-03-10T20:35:07.838Z,5.20
2019-03-10T20:37:39.237Z,5.10
2019-03-10T20:40:12.867Z,5.10
2019-03-10T20:42:44.323Z,5.20
2019-03-10T20:45:16.575Z,5.20
2019-03-10T20:47:50.047Z,5.10
2019-03-10T20:50:21.752Z,5.10
2019-03-10T20:52:53.440Z,5.00
2019-03-10T20:55:24.996Z,5.00
2019-03-10T20:57:56.913Z,5.00
2019-03-10T21:00:28.577Z,5.00
2019-03-10T21:03:00.064Z,4.80
2019-03-10T21:05:31.705Z,4.90
2019-03-10T21:08:03.155Z,4.80
2019-03-10T21:10:34.861Z,4.80
2019-03-10T21:13:06.344Z,4.70
2019-03-10T21:15:37.824Z,4.70
2019-03-10T21:18:09.339Z,4.70
2019-03-10T21:20:40.846Z,4.80
2019-03-10T21:23:12.408Z,4.70
2019-03-10T21:25:43.923Z,4.70
2019-03-10T21:28:15.305Z,4.70
2019-03-10T21:30:46.945Z,4.70
2019-03-10T21:33:18.347Z,4.70
2019-03-10T21:35:49.847Z,4.60
2019-03-10T21:38:21.213Z,4.60
2019-03-10T21:40:52.764Z,4.60
2019-03-10T21:43:24.160Z,4.60
2019-03-10T21:45:55.823Z,4.70
2019-03-10T21:48:27.205Z,4.60
2019-03-10T21:50:58.802Z,4.70
2019-03-10T21:53:30.273Z,4.70
2019-03-10T21:56:01.788Z,4.70
2019-03-10T21:58:33.182Z,4.70
2019-03-10T22:01:04.755Z,4.60
2019-03-10T22:03:36.238Z,4.60
2019-03-10T22:06:07.684Z,4.60
2019-03-10T22:08:39.186Z,4.60
2019-03-10T22:11:11.842Z,4.70
2019-03-10T22:13:46.967Z,4.60
2019-03-10T22:16:16.569Z,4.70
2019-03-10T22:18:47.956Z,4.60
2019-03-10T22:21:19.507Z,4.60
2019-03-10T22:23:58.726Z,4.60
2019-03-10T22:26:24.156Z,4.60
2019-03-10T22:28:55.561Z,4.60
2019-03-10T22:31:27.359Z,4.60
2019-03-10T22:33:58.907Z,4.60
2019-03-10T22:36:30.473Z,4.60
2019-03-10T22:39:01.912Z,4.60
2019-03-10T22:41:35.222Z,4.60
2019-03-10T22:44:06.583Z,4.50
2019-03-10T22:46:38.163Z,4.50
2019-03-10T22:49:09.622Z,4.50
2019-03-10T22:51:41.158Z,4.50
2019-03-10T22:54:12.612Z,4.40
2019-03-10T22:56:44.117Z,4.50
2019-03-10T22:59:15.600Z,4.40
2019-03-10T23:01:47.200Z,4.40
2019-03-10T23:04:18.708Z,4.40
2019-03-10T23:06:50.241Z,4.30
2019-03-10T23:09:21.748Z,4.30
2019-03-10T23:11:53.506Z,4.30
2019-03-10T23:14:24.921Z,4.30
2019-03-10T23:16:56.590Z,4.40
2019-03-10T23:19:28.333Z,4.40
2019-03-10T23:22:00.254Z,4.30
2019-03-10T23:24:31.793Z,4.30
2019-03-10T23:27:03.185Z,4.20
2019-03-10T23:29:34.533Z,4.20
2019-03-10T23:32:05.918Z,4.30
2019-03-10T23:34:37.357Z,4.30
2019-03-10T23:37:08.912Z,4.30
2019-03-10T23:39:40.388Z,4.40
2019-03-10T23:42:13.400Z,4.40
2019-03-10T23:44:44.955Z,4.40
2019-03-10T23:47:16.412Z,4.40
2019-03-10T23:49:47.946Z,4.40
2019-03-10T23:52:19.376Z,4.40
2019-03-10T23:54:50.748Z,4.40
2019-03-10T23:57:22.283Z,4.40
2019-03-10T23:59:53.894Z,4.30
